Archival Weather

Al Kharj

Al Kharj, Saudi Arabia (OEKJ)

Report from: Thursday, September 21, 2023 6:00 PM UTC
Current time: Friday, February 23, 2024 8:21 PM UTC

Current weather – Weather history – Daily summaries
Weather forecast

Temperature33.0°C (91.4°F)
Heat index30.6°C (87.1°F)
Dew point-5.0°C (23.0°F)
Winds 7 kts (3.6 m/s, 8.1 mph) Northeast (50°)
Clouds Sky clear
Altimeter29.91 in.Hg (1013 mB)
Relative humidity8 %
Density altitude2,133 ft. (650 m)
Remarks Ceiling and visibility OK
Flight conditions Visual Meteorological Conditions
Raw dataOEKJ 211800Z 05007KT CAVOK 33/M05 Q1013
An error has occurred. This application may no longer respond until reloaded. Reload 🗙